Time;durP1;ratioP1;P1;durP2;ratioP2;P2;SDS_P1;SDS_P2;PMS_P1;PMS_P2;Temp;Humidity;BMP_temperature;BMP_pressure;BME280_temperature;BME280_humidity;BME280_pressure;Samples;Min_cycle;Max_cycle;Signal;HPM_P1;HPM_P2
2022/07/15 00:02:06;;;;;;;4.50;2.20;;;;;;;21.58;47.66;102266.50;5070506;28;20055;-66
2022/07/15 00:04:32;;;;;;;12.77;2.05;;;;;;;21.55;47.61;102269.78;5070311;28;20121;-66
2022/07/15 00:06:58;;;;;;;7.70;1.63;;;;;;;21.44;47.79;102265.31;5069727;28;20032;-68
2022/07/15 00:10:13;;;;;;;4.20;1.38;;;;;;;21.42;47.95;102274.88;5066192;28;20048;-67
2022/07/15 00:12:09;;;;;;;5.47;1.63;;;;;;;21.33;48.45;102266.31;5071232;28;20130;-66
2022/07/15 00:14:35;;;;;;;7.07;2.63;;;;;;;21.22;49.08;102269.22;5071824;28;20036;-66
2022/07/15 00:17:00;;;;;;;8.52;2.67;;;;;;;21.31;48.73;102270.38;5071939;28;20060;-66
2022/07/15 00:19:26;;;;;;;6.32;2.30;;;;;;;21.38;48.31;102266.38;5071366;28;20052;-68
2022/07/15 00:21:51;;;;;;;5.88;1.75;;;;;;;21.32;49.07;102266.59;5071473;28;20040;-66
2022/07/15 00:24:17;;;;;;;5.63;2.17;;;;;;;21.31;49.23;102253.97;5071451;28;20036;-68
2022/07/15 00:26:42;;;;;;;6.63;2.10;;;;;;;21.37;49.11;102264.72;5051566;28;20082;-66
2022/07/15 00:29:07;;;;;;;8.35;2.03;;;;;;;21.41;48.75;102260.38;5053465;28;20112;-67
2022/07/15 00:31:33;;;;;;;9.82;1.92;;;;;;;21.43;48.67;102260.09;5057014;28;20028;-67
2022/07/15 00:33:58;;;;;;;8.55;2.17;;;;;;;21.49;49.09;102253.56;5070013;28;20040;-66
2022/07/15 00:36:24;;;;;;;10.63;2.53;;;;;;;21.50;49.00;102253.31;5070859;28;20039;-66
2022/07/15 00:38:49;;;;;;;4.57;1.85;;;;;;;21.67;48.42;102251.25;5070915;28;20032;-64
2022/07/15 00:41:15;;;;;;;6.20;2.58;;;;;;;21.77;48.42;102255.94;5070866;28;20028;-65
2022/07/15 00:43:40;;;;;;;10.68;2.67;;;;;;;21.78;48.73;102255.66;5065577;28;20027;-65
2022/07/15 00:46:06;;;;;;;9.77;2.83;;;;;;;21.76;48.49;102257.03;5090635;28;20047;-65
2022/07/15 00:48:32;;;;;;;10.48;3.08;;;;;;;21.71;48.23;102251.53;5072338;28;20036;-67
2022/07/15 00:50:57;;;;;;;5.38;1.70;;;;;;;21.83;48.47;102254.91;5086506;28;20547;-66
2022/07/15 00:53:28;;;;;;;9.90;2.35;;;;;;;21.83;48.24;102252.19;5070165;28;20039;-65
2022/07/15 00:55:58;;;;;;;6.47;2.08;;;;;;;21.76;48.38;102251.53;5071118;28;20028;-67
2022/07/15 00:58:26;;;;;;;6.75;2.13;;;;;;;22.03;48.25;102249.56;5070216;28;20123;-66
2022/07/15 01:00:54;;;;;;;5.22;2.20;;;;;;;21.94;48.28;102242.91;5070140;28;20035;-66
2022/07/15 01:03:20;;;;;;;8.52;2.20;;;;;;;22.01;47.97;102240.78;5070303;28;20652;-65
2022/07/15 01:05:47;;;;;;;9.63;2.65;;;;;;;22.15;47.67;102250.13;5070261;28;20032;-65
2022/07/15 01:08:14;;;;;;;7.88;2.15;;;;;;;22.20;47.48;102241.94;5070307;28;20047;-65
2022/07/15 01:10:40;;;;;;;8.98;3.35;;;;;;;22.15;48.27;102243.84;5069911;28;20029;-66
2022/07/15 01:13:06;;;;;;;5.43;2.05;;;;;;;22.07;48.24;102242.44;5070159;28;20094;-64
2022/07/15 01:15:32;;;;;;;10.75;2.45;;;;;;;22.08;48.27;102241.34;5070104;28;20491;-65
2022/07/15 01:18:00;;;;;;;5.13;2.00;;;;;;;22.12;48.29;102238.88;5069923;28;20040;-66
2022/07/15 01:20:25;;;;;;;7.20;2.10;;;;;;;22.10;48.36;102246.53;5069946;28;20578;-65
2022/07/15 01:22:51;;;;;;;8.32;2.33;;;;;;;22.14;48.16;102245.75;5052645;28;20032;-65
2022/07/15 01:25:16;;;;;;;11.40;2.78;;;;;;;22.11;48.34;102253.69;5051891;28;20041;-64
2022/07/15 01:27:41;;;;;;;6.28;2.03;;;;;;;21.38;50.10;102265.53;5069658;28;20052;-67
2022/07/15 01:30:08;;;;;;;9.95;2.50;;;;;;;21.62;49.75;102261.34;5069807;28;20036;-66
2022/07/15 01:32:34;;;;;;;6.85;2.08;;;;;;;21.32;50.09;102255.66;5069676;28;20557;-66
2022/07/15 01:34:59;;;;;;;10.85;2.63;;;;;;;21.55;49.25;102264.28;5070240;28;20020;-65
2022/07/15 01:37:25;;;;;;;4.97;1.98;;;;;;;21.64;48.67;102251.75;5069355;28;20218;-66
2022/07/15 01:39:50;;;;;;;6.55;2.58;;;;;;;21.60;48.84;102250.63;5069493;28;20040;-66
2022/07/15 01:42:16;;;;;;;6.50;2.60;;;;;;;21.61;48.47;102254.19;5070664;28;20445;-66
2022/07/15 01:44:41;;;;;;;8.18;2.30;;;;;;;21.68;47.79;102258.34;5089763;28;20586;-65
2022/07/15 01:47:06;;;;;;;6.50;2.50;;;;;;;21.50;49.17;102258.78;5086717;28;20067;-67
2022/07/15 01:49:32;;;;;;;8.07;3.67;;;;;;;21.54;48.35;102257.16;5069112;28;20036;-66
2022/07/15 01:51:59;;;;;;;10.90;2.38;;;;;;;21.58;48.49;102258.28;5069683;28;20040;-67
2022/07/15 01:54:27;;;;;;;8.23;2.08;;;;;;;21.57;48.04;102261.28;5069158;28;20427;-66
2022/07/15 01:56:53;;;;;;;8.60;1.80;;;;;;;21.44;48.20;102262.59;5069744;28;20108;-65
2022/07/15 01:59:22;;;;;;;9.68;2.22;;;;;;;21.35;49.46;102268.78;5070214;28;20032;-67
2022/07/15 02:01:48;;;;;;;7.72;2.30;;;;;;;21.13;49.37;102263.41;5070221;28;20037;-66
2022/07/15 02:04:14;;;;;;;6.50;1.85;;;;;;;21.40;48.70;102263.38;5069288;28;20093;-67
2022/07/15 02:06:40;;;;;;;6.90;2.08;;;;;;;21.17;48.61;102264.53;5068942;28;20036;-66
2022/07/15 02:09:07;;;;;;;7.88;2.03;;;;;;;21.21;48.78;102265.66;5068836;28;20040;-66
2022/07/15 02:11:32;;;;;;;10.27;1.88;;;;;;;21.09;48.27;102264.22;5069195;28;20081;-67
2022/07/15 02:13:59;;;;;;;5.95;2.05;;;;;;;21.17;48.73;102258.28;5069705;28;20032;-66
2022/07/15 02:16:32;;;;;;;4.43;1.70;;;;;;;21.39;47.80;102253.50;5068746;28;20124;-66
2022/07/15 02:18:58;;;;;;;5.70;1.95;;;;;;;21.38;48.14;102260.91;5068850;28;20090;-68
2022/07/15 02:21:26;;;;;;;12.30;2.20;;;;;;;21.42;47.69;102256.56;5069057;28;20476;-65
2022/07/15 02:23:54;;;;;;;7.63;1.88;;;;;;;21.35;47.65;102261.41;5068537;28;20048;-66
2022/07/15 02:26:20;;;;;;;7.80;3.13;;;;;;;21.29;47.79;102254.25;5069289;28;20560;-66
2022/07/15 02:28:45;;;;;;;6.18;2.45;;;;;;;21.07;48.56;102258.19;5068920;28;20067;-67
2022/07/15 02:31:11;;;;;;;6.28;2.35;;;;;;;21.32;48.17;102258.38;5068391;28;20060;-65
2022/07/15 02:33:38;;;;;;;5.45;1.83;;;;;;;20.95;48.96;102261.06;5067990;28;20036;-66
2022/07/15 02:36:03;;;;;;;8.48;2.40;;;;;;;20.99;48.50;102251.25;5068005;28;20044;-66
2022/07/15 02:38:29;;;;;;;5.15;1.70;;;;;;;21.20;48.36;102257.72;5067452;28;20492;-67
2022/07/15 02:40:54;;;;;;;6.57;1.77;;;;;;;21.08;49.03;102260.66;5068650;28;20108;-67
2022/07/15 02:43:21;;;;;;;8.60;1.88;;;;;;;21.32;48.07;102266.59;5078596;28;20035;-65
2022/07/15 02:45:46;;;;;;;7.88;1.52;;;;;;;21.40;48.05;102269.66;5088208;28;20040;-65
2022/07/15 02:48:12;;;;;;;6.18;1.92;;;;;;;21.53;47.66;102268.38;5075213;28;20135;-64
2022/07/15 02:50:37;;;;;;;7.55;1.98;;;;;;;21.48;47.70;102279.28;5069502;28;20036;-67
2022/07/15 02:53:03;;;;;;;14.65;2.10;;;;;;;21.51;47.74;102273.28;5072658;28;20044;-66
2022/07/15 02:55:29;;;;;;;3.45;1.25;;;;;;;21.54;47.89;102279.03;5072509;28;20083;-65
2022/07/15 02:57:55;;;;;;;6.85;1.88;;;;;;;21.35;48.60;102279.72;5072545;28;20052;-67
2022/07/15 03:00:21;;;;;;;7.22;2.13;;;;;;;21.28;48.57;102276.41;5054315;28;20025;-66
2022/07/15 03:02:47;;;;;;;8.75;1.73;;;;;;;21.42;48.41;102289.38;5072340;28;20040;-67
2022/07/15 03:05:13;;;;;;;6.68;1.73;;;;;;;21.36;48.64;102287.69;5073075;28;20020;-66
2022/07/15 03:07:39;;;;;;;4.82;1.58;;;;;;;21.30;48.97;102288.72;5072280;28;20052;-65
2022/07/15 03:10:06;;;;;;;6.03;1.70;;;;;;;21.47;48.34;102285.84;5071956;28;20033;-67
2022/07/15 03:12:31;;;;;;;4.22;1.52;;;;;;;21.36;48.42;102289.59;5071925;28;20037;-66
2022/07/15 03:14:57;;;;;;;5.90;1.63;;;;;;;21.51;47.98;102286.97;5072389;28;20044;-67
2022/07/15 03:17:23;;;;;;;8.82;2.28;;;;;;;21.48;48.14;102287.50;5071835;28;20044;-66
2022/07/15 03:19:48;;;;;;;7.15;1.95;;;;;;;21.39;47.90;102281.69;5072958;28;20016;-66
2022/07/15 03:22:13;;;;;;;8.93;2.17;;;;;;;21.47;48.19;102286.66;5072006;28;20471;-65
2022/07/15 03:24:39;;;;;;;6.03;1.98;;;;;;;21.41;48.14;102284.97;5071269;28;20032;-65
2022/07/15 03:27:04;;;;;;;5.32;2.03;;;;;;;21.38;48.64;102287.41;5071854;28;20045;-66
2022/07/15 03:29:30;;;;;;;10.50;1.85;;;;;;;21.41;48.43;102295.91;5071550;28;20044;-67
2022/07/15 03:31:56;;;;;;;10.00;3.15;;;;;;;21.47;48.47;102289.41;5071679;28;20541;-66
2022/07/15 03:34:25;;;;;;;9.43;1.90;;;;;;;21.45;48.43;102296.22;5071517;28;20421;-65
2022/07/15 03:36:51;;;;;;;9.02;1.75;;;;;;;21.44;48.24;102297.31;5072159;28;20029;-66
2022/07/15 03:39:17;;;;;;;5.40;2.92;;;;;;;21.39;48.50;102303.56;5071273;28;20138;-66
2022/07/15 03:41:42;;;;;;;13.15;2.08;;;;;;;21.39;48.78;102297.25;5071420;28;20063;-67
2022/07/15 03:44:07;;;;;;;7.00;1.80;;;;;;;21.34;48.90;102310.91;5089040;28;20023;-66
2022/07/15 03:46:33;;;;;;;6.93;1.50;;;;;;;21.34;48.91;102300.78;5091647;28;20512;-67
2022/07/15 03:49:00;;;;;;;4.32;1.27;;;;;;;21.26;48.86;102301.28;5072383;28;20395;-65
2022/07/15 03:51:30;;;;;;;6.57;1.38;;;;;;;21.28;49.01;102301.84;5071484;28;20485;-65
2022/07/15 03:53:59;;;;;;;3.38;1.50;;;;;;;21.28;48.82;102312.78;5071195;28;20032;-66
2022/07/15 03:56:26;;;;;;;3.92;1.45;;;;;;;21.32;48.96;102310.34;5070997;28;20515;-66
2022/07/15 03:58:51;;;;;;;7.65;2.42;;;;;;;21.17;49.74;102318.41;5072323;28;20032;-66
2022/07/15 04:01:17;;;;;;;7.25;1.90;;;;;;;21.10;49.24;102324.09;5069488;28;20538;-65
2022/07/15 04:03:42;;;;;;;4.97;1.63;;;;;;;21.22;49.00;102322.03;5070479;28;20039;-65
2022/07/15 04:06:07;;;;;;;6.50;1.60;;;;;;;21.04;49.74;102325.13;5071041;28;20037;-66
2022/07/15 04:08:33;;;;;;;11.13;2.03;;;;;;;21.24;48.89;102328.06;5070715;28;20036;-66
2022/07/15 04:10:58;;;;;;;9.10;2.50;;;;;;;21.35;49.23;102324.31;5071066;28;20381;-66
2022/07/15 04:13:24;;;;;;;6.57;1.90;;;;;;;21.25;50.16;102326.94;5071311;28;20032;-66
2022/07/15 04:15:49;;;;;;;13.07;2.10;;;;;;;21.50;48.72;102324.44;5072082;28;20025;-66
2022/07/15 04:18:14;;;;;;;10.95;3.30;;;;;;;21.45;49.30;102329.88;5071068;28;20150;-66
2022/07/15 04:20:40;;;;;;;5.97;1.90;;;;;;;21.42;49.26;102333.13;5070457;28;20040;-67
2022/07/15 04:23:07;;;;;;;5.03;1.92;;;;;;;21.51;49.27;102338.94;5071588;28;20491;-65
2022/07/15 04:25:33;;;;;;;9.45;1.80;;;;;;;21.52;48.92;102335.94;5070671;28;20052;-67
2022/07/15 04:27:58;;;;;;;5.97;2.40;;;;;;;21.51;48.65;102339.78;5052610;28;20074;-66
2022/07/15 04:30:24;;;;;;;5.72;1.48;;;;;;;21.50;48.98;102348.25;5070688;28;20039;-67
2022/07/15 04:32:50;;;;;;;6.85;2.10;;;;;;;21.60;48.77;102346.41;5071118;28;20071;-67
2022/07/15 04:35:16;;;;;;;8.02;2.30;;;;;;;21.60;48.84;102343.66;5070637;28;20031;-67
2022/07/15 04:37:41;;;;;;;10.07;2.70;;;;;;;21.64;48.90;102349.47;5070983;28;20036;-67
2022/07/15 04:40:07;;;;;;;5.47;2.83;;;;;;;21.55;48.94;102351.00;5070195;28;20080;-66
2022/07/15 04:42:32;;;;;;;5.20;1.63;;;;;;;21.61;49.02;102350.78;5070495;28;20040;-67
2022/07/15 04:44:58;;;;;;;6.88;2.85;;;;;;;21.53;49.23;102353.19;5070877;28;20400;-65
2022/07/15 04:47:23;;;;;;;7.55;2.28;;;;;;;21.55;49.38;102357.31;5076240;28;20032;-67
2022/07/15 04:52:33;;;;;;;5.70;2.78;;;;;;;21.65;48.88;102359.28;5088703;28;20055;-66
2022/07/15 04:54:58;;;;;;;6.18;1.98;;;;;;;21.65;49.02;102351.94;5069992;28;20455;-67
2022/07/15 04:57:23;;;;;;;7.90;2.45;;;;;;;21.71;48.94;102361.00;5069843;28;20374;-66
2022/07/15 04:59:49;;;;;;;11.75;2.25;;;;;;;21.65;49.25;102360.13;5070222;28;20040;-66
2022/07/15 05:02:14;;;;;;;9.38;1.92;;;;;;;21.74;48.82;102360.44;5070581;28;20678;-67
2022/07/15 05:04:40;;;;;;;5.55;2.53;;;;;;;21.54;49.24;102347.44;5069897;28;20123;-66
2022/07/15 05:07:06;;;;;;;6.90;1.75;;;;;;;21.60;49.67;102351.06;5070050;28;20044;-67
2022/07/15 05:09:32;;;;;;;6.63;2.28;;;;;;;21.75;48.57;102353.91;5069471;28;20040;-67
2022/07/15 05:11:58;;;;;;;8.70;1.77;;;;;;;21.63;48.75;102356.00;5069680;28;20064;-66
2022/07/15 05:14:23;;;;;;;13.52;1.83;;;;;;;21.75;48.80;102360.22;5069185;28;20114;-67
2022/07/15 05:16:50;;;;;;;6.72;1.92;;;;;;;21.87;48.56;102361.97;5070086;28;20495;-66
2022/07/15 05:19:15;;;;;;;7.32;1.83;;;;;;;21.93;47.97;102361.75;5068259;28;20039;-67
2022/07/15 05:21:41;;;;;;;14.95;2.22;;;;;;;21.81;48.51;102359.19;5068441;28;20396;-66
2022/07/15 05:24:06;;;;;;;9.75;1.77;;;;;;;21.76;48.58;102361.84;5068611;28;20060;-66
2022/07/15 05:26:32;;;;;;;7.82;2.33;;;;;;;21.81;47.86;102366.56;5068321;28;20028;-67
2022/07/15 05:28:57;;;;;;;7.88;1.98;;;;;;;21.91;48.05;102363.91;5050971;28;20431;-66
2022/07/15 05:31:23;;;;;;;6.68;1.80;;;;;;;21.93;48.05;102361.75;5068032;28;20054;-65
2022/07/15 05:33:49;;;;;;;7.57;2.25;;;;;;;21.63;48.44;102365.03;5069038;28;20459;-66
2022/07/15 05:36:15;;;;;;;9.80;1.38;;;;;;;21.78;48.08;102361.56;5068406;28;20037;-66
2022/07/15 05:38:41;;;;;;;10.07;1.48;;;;;;;21.74;48.06;102361.28;5067892;28;20056;-65
2022/07/15 05:41:08;;;;;;;7.47;1.92;;;;;;;21.58;47.37;102359.50;5068654;28;20668;-67
2022/07/15 05:43:34;;;;;;;15.10;2.05;;;;;;;21.75;47.00;102359.38;5057992;28;20029;-66
2022/07/15 05:45:59;;;;;;;6.43;1.20;;;;;;;21.60;46.24;102362.81;5062518;28;20047;-66
2022/07/15 05:48:25;;;;;;;6.20;0.93;;;;;;;21.34;46.84;102366.44;5050021;28;20029;-67
2022/07/15 05:50:50;;;;;;;4.90;1.00;;;;;;;21.87;45.95;102357.31;5069405;28;20043;-67
2022/07/15 05:53:16;;;;;;;12.23;1.23;;;;;;;21.93;45.17;102364.47;5069086;28;20587;-66
2022/07/15 05:55:41;;;;;;;4.82;0.93;;;;;;;21.61;45.58;102364.47;5069242;28;21047;-65
2022/07/15 05:58:08;;;;;;;6.35;0.95;;;;;;;21.80;45.24;102367.63;5069063;28;20044;-66
2022/07/15 06:00:34;;;;;;;3.58;1.02;;;;;;;21.13;46.92;102366.50;5069303;28;20047;-67
2022/07/15 06:02:59;;;;;;;4.45;0.90;;;;;;;21.67;45.76;102362.59;5069051;28;20578;-66
2022/07/15 06:05:25;;;;;;;4.13;0.93;;;;;;;21.75;45.25;102362.13;5069080;28;20044;-65
2022/07/15 06:07:50;;;;;;;6.55;0.85;;;;;;;22.13;43.50;102361.03;5069581;28;20438;-66
2022/07/15 06:10:16;;;;;;;6.95;1.33;;;;;;;21.78;44.13;102365.16;5068928;28;20032;-66
2022/07/15 06:12:41;;;;;;;0.85;0.55;;;;;;;21.76;43.64;102361.00;5071856;28;20164;-70
2022/07/15 06:15:07;;;;;;;4.18;0.80;;;;;;;22.14;43.56;102365.41;5070673;28;20415;-69
2022/07/15 06:17:33;;;;;;;5.22;0.80;;;;;;;22.13;42.26;102363.78;5069169;28;20129;-69
2022/07/15 06:19:59;;;;;;;3.70;0.77;;;;;;;22.07;43.81;102364.84;5069725;28;20419;-66
2022/07/15 06:22:25;;;;;;;2.72;0.60;;;;;;;22.29;41.84;102358.09;5069206;28;20581;-67
2022/07/15 06:24:50;;;;;;;4.88;1.02;;;;;;;21.92;41.81;102364.72;5071659;28;20029;-67
2022/07/15 06:27:15;;;;;;;6.90;0.85;;;;;;;21.87;41.70;102365.53;5071252;28;20381;-67
2022/07/15 06:29:41;;;;;;;2.85;0.50;;;;;;;22.35;39.89;102358.94;5072445;28;20094;-66
2022/07/15 06:32:07;;;;;;;2.28;0.75;;;;;;;22.09;39.66;102358.00;5072977;28;20086;-66
2022/07/15 06:34:33;;;;;;;2.95;0.65;;;;;;;21.66;39.52;102353.56;5054141;28;20111;-65
2022/07/15 06:36:58;;;;;;;4.07;0.60;;;;;;;21.89;38.71;102354.31;5072794;28;20408;-65
2022/07/15 06:39:24;;;;;;;3.25;0.82;;;;;;;22.33;38.48;102356.47;5072663;28;20040;-66
2022/07/15 06:41:49;;;;;;;1.73;0.30;;;;;;;22.18;38.73;102350.09;5073068;28;20123;-65
2022/07/15 06:44:15;;;;;;;3.45;0.70;;;;;;;22.72;37.63;102356.97;5072818;28;20484;-67
2022/07/15 06:46:41;;;;;;;1.58;0.43;;;;;;;22.69;37.04;102354.75;5072139;28;20048;-66
2022/07/15 06:49:07;;;;;;;2.97;0.40;;;;;;;22.70;37.47;102359.16;5065545;28;20033;-67
2022/07/15 06:51:32;;;;;;;7.45;1.35;;;;;;;22.47;37.59;102365.88;5068378;28;20029;-66
2022/07/15 06:53:57;;;;;;;1.38;0.50;;;;;;;21.95;37.67;102366.94;5063446;28;20037;-68
2022/07/15 06:56:23;;;;;;;0.77;0.30;;;;;;;22.99;35.81;102363.06;5070003;28;20403;-67
2022/07/15 06:58:48;;;;;;;1.58;0.40;;;;;;;22.68;37.29;102362.13;5066600;28;20085;-64
2022/07/15 07:01:14;;;;;;;1.40;0.50;;;;;;;22.64;37.73;102365.69;5067324;28;20032;-66
2022/07/15 07:03:40;;;;;;;2.45;0.55;;;;;;;22.05;38.83;102370.56;5067302;28;20530;-66
2022/07/15 07:06:05;;;;;;;6.82;0.65;;;;;;;22.43;38.36;102372.97;5070832;28;20037;-65
2022/07/15 07:08:31;;;;;;;2.70;0.70;;;;;;;22.77;37.40;102364.34;5067359;28;20040;-65
2022/07/15 07:10:56;;;;;;;3.15;0.40;;;;;;;22.93;35.99;102377.84;5065640;28;20085;-66
2022/07/15 07:13:23;;;;;;;3.00;0.32;;;;;;;22.60;36.89;102378.28;5066758;28;20044;-66
2022/07/15 07:15:49;;;;;;;1.27;0.43;;;;;;;23.21;35.60;102374.59;5064557;28;20037;-66
2022/07/15 07:18:14;;;;;;;2.63;0.32;;;;;;;23.09;36.08;102384.19;5066532;28;20040;-65
2022/07/15 07:20:43;;;;;;;2.45;0.98;;;;;;;23.20;35.95;102383.94;5066688;28;20033;-66
2022/07/15 07:23:09;;;;;;;1.02;0.30;;;;;;;22.64;36.30;102382.16;5066632;28;20043;-66
2022/07/15 07:25:34;;;;;;;1.52;0.40;;;;;;;22.11;37.32;102385.13;5066672;28;20025;-65
2022/07/15 07:28:03;;;;;;;1.02;0.20;;;;;;;22.08;37.38;102385.63;5067606;28;20110;-66
2022/07/15 07:30:29;;;;;;;1.85;0.50;;;;;;;22.36;35.80;102379.78;5065455;28;20032;-68
2022/07/15 07:32:54;;;;;;;1.00;0.28;;;;;;;22.55;36.12;102372.75;5066637;28;20086;-66
2022/07/15 07:35:20;;;;;;;0.57;0.40;;;;;;;22.41;35.58;102382.53;5066924;28;20028;-66
2022/07/15 07:37:45;;;;;;;0.45;0.30;;;;;;;23.32;34.76;102381.81;5065985;28;20024;-66
2022/07/15 07:40:11;;;;;;;1.38;0.30;;;;;;;22.83;34.01;102380.56;5066129;28;20484;-67
2022/07/15 07:42:38;;;;;;;3.00;0.80;;;;;;;22.52;35.76;102378.78;5066765;28;20051;-67
2022/07/15 07:45:03;;;;;;;0.57;0.20;;;;;;;23.09;35.06;102379.53;5066843;28;20447;-66
2022/07/15 07:47:29;;;;;;;3.58;0.40;;;;;;;23.36;34.58;102374.66;5066977;28;20028;-67
2022/07/15 07:49:54;;;;;;;1.13;0.50;;;;;;;23.67;32.97;102369.16;5066974;28;20028;-68
2022/07/15 07:52:20;;;;;;;5.00;0.30;;;;;;;23.62;33.16;102361.78;5066457;28;20089;-66
2022/07/15 07:54:46;;;;;;;2.55;0.60;;;;;;;24.38;32.24;102370.72;5066589;28;20048;-66
2022/07/15 07:57:11;;;;;;;2.53;0.75;;;;;;;23.33;33.82;102374.41;5065783;28;20028;-66
2022/07/15 07:59:37;;;;;;;0.30;0.30;;;;;;;23.97;32.30;102353.50;5066232;28;20032;-68
2022/07/15 08:02:03;;;;;;;2.30;0.38;;;;;;;23.61;33.54;102362.03;5067546;28;20029;-66
2022/07/15 08:04:30;;;;;;;3.35;0.20;;;;;;;24.14;32.40;102366.94;5066235;28;20036;-68
2022/07/15 08:06:56;;;;;;;1.48;0.35;;;;;;;24.59;31.42;102366.78;5066335;28;20119;-68
2022/07/15 08:09:21;;;;;;;1.02;0.30;;;;;;;24.62;31.35;102365.41;5065997;28;20559;-69
2022/07/15 08:11:46;;;;;;;1.00;0.30;;;;;;;24.53;32.30;102361.59;5046958;28;20097;-67
2022/07/15 08:14:12;;;;;;;1.00;0.20;;;;;;;24.68;31.87;102362.34;5068009;28;20072;-68
2022/07/15 08:16:42;;;;;;;1.00;0.75;;;;;;;24.01;31.71;102371.06;5066651;28;20492;-68
2022/07/15 08:19:07;;;;;;;1.75;0.20;;;;;;;23.46;33.22;102369.19;5064962;28;20116;-67
2022/07/15 08:21:33;;;;;;;1.80;0.30;;;;;;;23.41;33.69;102380.16;5067521;28;20102;-68
2022/07/15 08:23:58;;;;;;;1.48;0.30;;;;;;;23.47;33.49;102372.75;5065648;28;20512;-68
2022/07/15 08:26:24;;;;;;;1.50;0.73;;;;;;;23.88;33.12;102371.63;5064815;28;20013;-67
2022/07/15 08:28:51;;;;;;;3.58;0.60;;;;;;;23.13;37.35;102379.81;5066594;28;20036;-64
2022/07/15 08:31:17;;;;;;;3.70;0.70;;;;;;;23.68;38.24;102377.16;5067254;28;20039;-66
2022/07/15 08:33:42;;;;;;;6.18;0.50;;;;;;;22.77;39.89;102387.13;5065677;28;20522;-73
2022/07/15 08:36:08;;;;;;;1.40;0.50;;;;;;;23.28;39.20;102386.16;5066160;28;20081;-64
2022/07/15 08:38:33;;;;;;;7.72;0.93;;;;;;;23.37;39.01;102381.00;5046741;28;20051;-66
2022/07/15 08:40:59;;;;;;;4.03;0.57;;;;;;;23.61;38.83;102381.25;5066039;28;20025;-67
2022/07/15 08:43:24;;;;;;;2.45;0.50;;;;;;;23.28;38.79;102390.81;5069411;28;20036;-67
2022/07/15 08:45:50;;;;;;;3.45;0.82;;;;;;;23.24;39.49;102393.28;5086081;28;20503;-68
2022/07/15 08:48:18;;;;;;;3.20;0.45;;;;;;;23.75;39.25;102388.66;5085281;28;20143;-68
2022/07/15 08:50:44;;;;;;;3.28;0.73;;;;;;;23.59;38.27;102386.22;5067597;28;20115;-68
2022/07/15 08:53:10;;;;;;;0.90;0.30;;;;;;;23.50;37.76;102386.75;5079372;28;20072;-66
2022/07/15 08:55:35;;;;;;;0.93;0.30;;;;;;;24.01;36.20;102382.06;5065416;28;20024;-65
2022/07/15 08:58:01;;;;;;;1.42;0.20;;;;;;;24.09;34.94;102378.78;5065227;28;20045;-66
2022/07/15 09:00:30;;;;;;;2.75;0.73;;;;;;;24.13;35.44;102395.53;5064176;28;20055;-64
2022/07/15 09:03:01;;;;;;;0.95;0.47;;;;;;;24.55;35.38;102392.38;5065196;28;20036;-64
2022/07/15 09:05:35;;;;;;;2.45;0.43;;;;;;;24.12;35.58;102389.19;5065325;28;20404;-65
2022/07/15 09:08:06;;;;;;;1.23;0.32;;;;;;;24.85;34.29;102382.09;5047127;28;20033;-64
2022/07/15 09:10:53;;;;;;;1.45;0.40;;;;;;;24.75;34.89;102384.88;5064384;28;20049;-64
2022/07/15 09:13:26;;;;;;;4.20;0.93;;;;;;;24.28;35.74;102384.47;5065304;28;20044;-65
2022/07/15 09:15:54;;;;;;;4.88;0.63;;;;;;;25.07;35.14;102374.25;5072561;28;20361;-65
2022/07/15 09:18:23;;;;;;;3.00;0.63;;;;;;;24.49;36.50;102372.31;5066479;28;20415;-66
2022/07/15 09:20:49;;;;;;;2.17;0.65;;;;;;;24.48;36.37;102362.44;5085230;28;20125;-65
2022/07/15 09:23:20;;;;;;;4.55;0.57;;;;;;;25.16;35.80;102372.53;5085838;28;20046;-67
2022/07/15 09:25:49;;;;;;;1.58;0.30;;;;;;;24.72;35.68;102371.72;5066655;28;20480;-65
2022/07/15 09:28:14;;;;;;;2.85;0.52;;;;;;;24.88;35.87;102372.44;5084538;28;20122;-66
2022/07/15 09:33:34;;;;;;;4.38;0.60;;;;;;;25.07;34.88;102374.25;5084246;28;20039;-64
2022/07/15 09:36:21;;;;;;;2.30;0.47;;;;;;;25.36;34.10;102366.06;5084504;28;20051;-66
2022/07/15 09:38:50;;;;;;;1.63;0.30;;;;;;;25.54;33.89;102364.56;5078087;28;20060;-65
2022/07/15 09:41:34;;;;;;;3.55;0.50;;;;;;;25.53;33.84;102358.28;5064141;28;20033;-65
2022/07/15 09:44:06;;;;;;;1.00;0.30;;;;;;;25.18;35.24;102348.31;5073380;28;20074;-65
2022/07/15 09:46:41;;;;;;;2.17;0.63;;;;;;;25.53;34.48;102352.75;5084304;28;20527;-66
2022/07/15 09:49:06;;;;;;;5.47;0.73;;;;;;;25.53;34.77;102351.94;5050194;28;20040;-66
2022/07/15 09:51:42;;;;;;;1.75;0.50;;;;;;;24.74;36.41;102358.50;5047690;28;20551;-66
2022/07/15 09:54:11;;;;;;;1.88;0.40;;;;;;;25.22;36.00;102354.06;5044300;28;20112;-66
2022/07/15 09:56:37;;;;;;;4.60;0.70;;;;;;;25.84;34.23;102356.88;5047113;28;20037;-65
2022/07/15 09:59:03;;;;;;;4.13;0.90;;;;;;;25.47;34.48;102361.34;5064567;28;20484;-66
2022/07/15 10:01:29;;;;;;;1.42;0.55;;;;;;;25.79;34.19;102358.84;5064289;28;20052;-64
2022/07/15 10:03:55;;;;;;;5.15;1.00;;;;;;;26.53;33.44;102363.84;5063962;28;20500;-65
2022/07/15 10:06:24;;;;;;;4.32;0.77;;;;;;;26.83;32.21;102358.75;5064961;28;20063;-64
2022/07/15 10:08:50;;;;;;;2.05;0.55;;;;;;;27.20;31.82;102355.19;5064721;28;20051;-65
2022/07/15 10:11:16;;;;;;;1.67;0.65;;;;;;;27.42;31.40;102352.63;5063873;28;20483;-67
2022/07/15 10:14:02;;;;;;;2.28;0.50;;;;;;;26.71;31.32;102338.25;5064429;28;20020;-64
2022/07/15 10:16:34;;;;;;;1.88;0.47;;;;;;;25.60;32.41;102344.97;5075981;28;20044;-66
2022/07/15 10:19:14;;;;;;;1.02;0.38;;;;;;;25.43;32.64;102338.25;5084080;28;20032;-65
2022/07/15 10:21:39;;;;;;;;;;;;;;;26.29;31.32;102346.50;5084294;28;20047;-65
2022/07/15 10:24:32;;;;;;;1.53;0.30;;;;;;;27.23;30.05;102340.78;5084871;28;20014;-66
2022/07/15 10:27:35;;;;;;;2.92;0.30;;;;;;;26.98;29.22;102332.91;5083693;28;20437;-65
2022/07/15 10:30:06;;;;;;;0.73;0.30;;;;;;;26.26;30.79;102330.56;5083837;28;20098;-64
2022/07/15 10:33:02;;;;;;;3.35;0.32;;;;;;;25.47;32.72;102340.16;5084483;28;20527;-66
2022/07/15 10:35:48;;;;;;;2.75;0.30;;;;;;;25.75;31.67;102325.53;5084131;28;20572;-65
2022/07/15 10:38:32;;;;;;;2.10;1.08;;;;;;;26.26;30.79;102325.03;5083332;28;20431;-67
2022/07/15 10:41:05;;;;;;;2.03;0.20;;;;;;;27.25;29.42;102327.50;5064124;28;20125;-66
2022/07/15 10:44:08;;;;;;;3.25;0.25;;;;;;;27.15;27.74;102321.31;5068749;28;20530;-65
2022/07/15 10:46:34;;;;;;;0.20;0.10;;;;;;;27.20;28.03;102315.72;5084218;28;20097;-66
2022/07/15 10:49:00;;;;;;;0.90;0.30;;;;;;;26.88;28.31;102322.00;5083761;28;20127;-64
2022/07/15 10:51:35;;;;;;;2.05;0.80;;;;;;;27.63;27.15;102320.81;5084266;28;20135;-66
2022/07/15 10:54:04;;;;;;;0.52;0.32;;;;;;;26.46;28.44;102313.72;5070278;28;20033;-64
2022/07/15 10:56:36;;;;;;;1.10;0.27;;;;;;;25.87;29.33;102314.13;5063926;28;20448;-65
2022/07/15 10:59:08;;;;;;;0.60;0.20;;;;;;;25.21;29.29;102313.91;5064460;28;20392;-66
2022/07/15 11:01:34;;;;;;;0.95;0.20;;;;;;;26.09;29.74;102311.72;5063288;28;20037;-65
2022/07/15 11:04:19;;;;;;;1.98;0.20;;;;;;;27.76;28.32;102295.13;5063988;28;20617;-66
2022/07/15 11:07:09;;;;;;;3.47;0.32;;;;;;;27.50;27.49;102301.41;5064014;28;20119;-64
2022/07/15 11:10:03;;;;;;;2.05;0.20;;;;;;;26.90;28.48;102308.72;4981541;28;20062;-74
2022/07/15 11:12:28;;;;;;;2.50;0.20;;;;;;;27.08;28.36;102309.84;4986534;28;20070;-73
2022/07/15 11:15:00;;;;;;;3.13;0.35;;;;;;;26.66;29.18;102317.06;4985990;28;20212;-70
2022/07/15 11:17:29;;;;;;;0.98;0.22;;;;;;;27.41;28.35;102295.78;4985275;28;20634;-71
2022/07/15 11:19:57;;;;;;;1.98;0.28;;;;;;;27.08;28.75;102294.09;4985582;28;20125;-71
2022/07/15 11:22:25;;;;;;;1.52;0.30;;;;;;;26.97;29.56;102294.56;4985152;28;20128;-72
2022/07/15 11:24:52;;;;;;;4.93;0.57;;;;;;;27.01;28.93;102298.38;4986136;28;20200;-73
2022/07/15 11:27:22;;;;;;;0.28;0.13;;;;;;;27.83;28.01;102285.63;4969276;28;20080;-73
2022/07/15 11:29:50;;;;;;;0.97;0.73;;;;;;;27.67;27.71;102285.09;4985146;28;20149;-71
2022/07/15 11:32:18;;;;;;;2.17;0.35;;;;;;;27.70;27.07;102284.47;4986288;28;20483;-70